Time;durP1;ratioP1;P1;durP2;ratioP2;P2;SDS_P1;SDS_P2;PMS_P1;PMS_P2;Temp;Humidity;BMP_temperature;BMP_pressure;BME280_temperature;BME280_humidity;BME280_pressure;Samples;Min_cycle;Max_cycle;Signal;HPM_P1;HPM_P2
2023/04/17 00:02:14;;;;;;;;;4.00;4.00;;;;;12.89;45.57;101693.38;5054078;28;57809;-59
2023/04/17 00:04:39;;;;;;;;;4.00;4.00;;;;;12.89;45.49;101696.00;5054676;28;45645;-59
2023/04/17 00:07:06;;;;;;;;;5.00;5.00;;;;;12.86;45.48;101693.44;5053022;28;45537;-58
2023/04/17 00:09:32;;;;;;;;;7.00;6.33;;;;;12.82;45.19;101691.81;5054506;28;45473;-58
2023/04/17 00:11:57;;;;;;;;;5.33;4.33;;;;;12.79;46.19;101697.19;5054214;28;45421;-58
2023/04/17 00:14:23;;;;;;;;;6.00;4.67;;;;;12.71;45.61;101676.28;5054263;28;45533;-58
2023/04/17 00:16:49;;;;;;;;;3.00;3.00;;;;;12.81;46.13;101690.06;5054018;28;46747;-58
2023/04/17 00:19:14;;;;;;;;;4.00;4.00;;;;;12.79;45.77;101684.84;5054476;28;45415;-58
2023/04/17 00:21:40;;;;;;;;;6.67;6.67;;;;;12.74;45.43;101681.47;5054306;28;45583;-58
2023/04/17 00:24:05;;;;;;;;;6.00;6.00;;;;;12.74;45.49;101670.03;5054335;28;45529;-59
2023/04/17 00:26:33;;;;;;;;;5.00;5.00;;;;;12.72;45.94;101672.72;5055229;28;45465;-59
2023/04/17 00:28:58;;;;;;;;;3.00;3.00;;;;;12.70;45.45;101668.38;5057546;28;45503;-58
2023/04/17 00:31:24;;;;;;;;;3.00;3.00;;;;;12.69;45.56;101670.16;5057769;28;45439;-58
2023/04/17 00:33:49;;;;;;;;;4.33;4.33;;;;;12.60;45.26;101663.38;5057488;28;45426;-58
2023/04/17 00:36:14;;;;;;;;;6.00;5.00;;;;;12.62;46.49;101660.66;5057596;28;47046;-59
2023/04/17 00:38:40;;;;;;;;;6.33;5.33;;;;;12.54;46.20;101662.66;5056580;28;45510;-58
2023/04/17 00:41:05;;;;;;;;;4.67;4.67;;;;;12.55;45.75;101667.03;5057499;28;45887;-58
2023/04/17 00:43:31;;;;;;;;;7.00;4.00;;;;;12.53;46.48;101667.06;5057680;28;45405;-58
2023/04/17 00:45:57;;;;;;;;;4.33;4.33;;;;;12.53;46.62;101664.41;5057175;28;45427;-58
2023/04/17 00:48:23;;;;;;;;;5.67;5.00;;;;;12.51;46.51;101657.44;5057389;28;45511;-58
2023/04/17 00:50:49;;;;;;;;;3.67;3.67;;;;;12.45;46.59;101653.22;5057597;28;45429;-58
2023/04/17 00:53:15;;;;;;;;;6.00;6.00;;;;;12.47;46.08;101655.81;5057509;28;45528;-58
2023/04/17 00:55:42;;;;;;;;;7.00;7.00;;;;;12.44;46.97;101654.13;5056844;28;45583;-58
2023/04/17 00:58:08;;;;;;;;;4.00;4.00;;;;;12.40;46.84;101647.19;5057309;28;45430;-59
2023/04/17 01:00:34;;;;;;;;;5.00;5.00;;;;;12.37;46.43;101645.50;5057116;28;45418;-58
2023/04/17 01:02:59;;;;;;;;;5.67;4.00;;;;;12.30;46.62;101630.72;5057479;28;45497;-58
2023/04/17 01:05:26;;;;;;;;;5.00;5.00;;;;;12.29;47.41;101625.50;5056931;28;50291;-58
2023/04/17 01:07:52;;;;;;;;;6.00;4.00;;;;;12.32;46.68;101641.25;5057213;28;45426;-59
2023/04/17 01:10:18;;;;;;;;;6.00;6.00;;;;;12.31;47.71;101636.88;5057127;28;45434;-58
2023/04/17 01:12:46;;;;;;;;;7.33;6.67;;;;;12.20;47.34;101629.25;5057099;28;45477;-58
2023/04/17 01:15:11;;;;;;;;;6.67;6.00;;;;;12.14;47.53;101622.34;5056747;28;46095;-58
2023/04/17 01:17:37;;;;;;;;;6.00;6.00;;;;;12.28;47.71;101639.59;5056745;28;46911;-58
2023/04/17 01:20:06;;;;;;;;;7.33;6.33;;;;;12.23;47.74;101646.75;5056979;28;45345;-58
2023/04/17 01:22:31;;;;;;;;;6.67;6.67;;;;;12.23;47.46;101636.22;5056868;28;45506;-59
2023/04/17 01:24:56;;;;;;;;;7.00;7.00;;;;;12.20;47.34;101637.16;5056810;28;46207;-58
2023/04/17 01:27:22;;;;;;;;;5.00;5.00;;;;;12.22;48.20;101640.59;5055896;28;45552;-58
2023/04/17 01:29:47;;;;;;;;;6.00;5.33;;;;;12.24;47.75;101643.22;5056224;28;50387;-58
2023/04/17 01:32:12;;;;;;;;;6.00;5.00;;;;;12.24;47.80;101637.94;5056715;28;45540;-59
2023/04/17 01:34:38;;;;;;;;;6.33;5.33;;;;;12.25;48.01;101634.38;5056461;28;46100;-58
2023/04/17 01:37:03;;;;;;;;;5.67;4.33;;;;;12.27;48.36;101632.56;5056564;28;47038;-60
2023/04/17 01:39:28;;;;;;;;;6.67;6.33;;;;;12.26;49.02;101637.00;5055928;28;45486;-58
2023/04/17 01:41:54;;;;;;;;;8.33;6.00;;;;;12.25;48.95;101631.75;5055231;28;45511;-58
2023/04/17 01:44:20;;;;;;;;;7.00;6.00;;;;;12.26;48.88;101625.56;5056076;28;46011;-58
2023/04/17 01:46:45;;;;;;;;;7.67;7.67;;;;;12.25;48.44;101629.09;5056513;28;45380;-58
2023/04/17 01:49:11;;;;;;;;;7.00;6.33;;;;;12.29;48.66;101641.31;5056461;28;45505;-58
2023/04/17 01:51:36;;;;;;;;;8.33;6.67;;;;;12.28;48.27;101639.59;5056444;27;45365;-57
2023/04/17 01:54:02;;;;;;;;;6.00;6.00;;;;;12.27;48.72;101645.75;5056343;28;45587;-58
2023/04/17 01:56:27;;;;;;;;;6.00;6.00;;;;;12.25;49.17;101645.81;5056125;28;45526;-58
2023/04/17 01:58:53;;;;;;;;;7.33;7.33;;;;;12.15;48.72;101626.72;5056551;28;45357;-58
2023/04/17 02:01:18;;;;;;;;;7.00;7.00;;;;;12.17;48.64;101634.59;5056125;28;45383;-58
2023/04/17 02:03:44;;;;;;;;;7.33;7.33;;;;;12.23;49.09;101645.00;5056176;28;46089;-58
2023/04/17 02:06:10;;;;;;;;;6.00;6.00;;;;;12.24;48.98;101637.94;5056188;28;45450;-59
2023/04/17 02:08:36;;;;;;;;;9.00;9.00;;;;;12.21;48.63;101649.44;5056168;28;45384;-58
2023/04/17 02:11:01;;;;;;;;;7.00;7.00;;;;;12.21;49.39;101643.28;5056051;28;45409;-58
2023/04/17 02:13:26;;;;;;;;;7.33;6.67;;;;;12.17;49.20;101642.50;5055878;28;45472;-58
2023/04/17 02:15:52;;;;;;;;;9.67;8.33;;;;;12.19;49.07;101647.72;5056280;28;45457;-58
2023/04/17 02:18:17;;;;;;;;;7.67;7.67;;;;;12.16;48.76;101641.63;5056135;28;45414;-58
2023/04/17 02:20:42;;;;;;;;;5.33;5.33;;;;;12.13;49.63;101640.84;5056170;28;45421;-58
2023/04/17 02:23:08;;;;;;;;;11.33;10.00;;;;;12.13;49.11;101646.97;5056050;28;46138;-59
2023/04/17 02:25:33;;;;;;;;;8.67;8.67;;;;;12.07;49.66;101631.31;5055790;28;45428;-58
2023/04/17 02:27:59;;;;;;;;;10.67;6.00;;;;;12.08;49.63;101630.41;5056143;28;45527;-58
2023/04/17 02:30:26;;;;;;;;;8.00;8.00;;;;;12.05;50.14;101627.00;5055855;28;45660;-58
2023/04/17 02:32:52;;;;;;;;;7.00;7.00;;;;;12.03;50.41;101623.50;5055472;28;48345;-58
2023/04/17 02:35:23;;;;;;;;;8.00;7.33;;;;;11.99;50.03;101622.72;5055313;28;45505;-58
2023/04/17 02:37:49;;;;;;;;;15.00;13.00;;;;;11.98;50.02;101626.25;5055879;28;45512;-58
2023/04/17 02:40:15;;;;;;;;;13.25;11.50;;;;;11.95;50.52;101621.06;5055472;28;45598;-59
2023/04/17 02:42:40;;;;;;;;;13.00;11.33;;;;;11.89;49.88;101615.94;5055467;28;46126;-59
2023/04/17 02:45:06;;;;;;;;;7.33;7.33;;;;;11.92;49.96;101629.06;5055582;28;45370;-59
2023/04/17 02:47:31;;;;;;;;;9.67;8.67;;;;;11.91;50.13;101632.59;5055505;28;45359;-58
2023/04/17 02:49:59;;;;;;;;;7.00;7.00;;;;;11.92;50.41;101629.06;5054521;28;45579;-58
2023/04/17 02:52:25;;;;;;;;;8.33;7.00;;;;;11.93;49.97;101622.91;5055287;28;45446;-58
2023/04/17 02:54:50;;;;;;;;;10.33;8.00;;;;;11.88;50.51;101616.88;5055375;28;45493;-58
2023/04/17 02:57:15;;;;;;;;;11.67;9.00;;;;;11.92;50.91;101629.06;5055503;28;45453;-59
2023/04/17 02:59:40;;;;;;;;;12.33;9.67;;;;;11.91;50.25;101622.06;5055339;28;45453;-58
2023/04/17 03:02:06;;;;;;;;;13.00;10.33;;;;;11.81;50.74;101608.19;5055133;28;45612;-59
2023/04/17 03:04:33;;;;;;;;;12.33;10.00;;;;;11.89;50.30;101627.34;5055216;28;45467;-58
2023/04/17 03:06:59;;;;;;;;;8.00;8.00;;;;;11.81;51.20;101615.25;5055396;28;45490;-58
2023/04/17 03:09:24;;;;;;;;;12.00;10.33;;;;;11.78;52.01;101610.91;5054816;28;45355;-58
2023/04/17 03:11:50;;;;;;;;;13.00;11.00;;;;;11.70;51.21;101600.53;5050852;28;46359;-58
2023/04/17 03:14:16;;;;;;;;;11.33;9.33;;;;;11.80;52.02;101614.38;5048353;28;45445;-58
2023/04/17 03:16:41;;;;;;;;;9.67;9.00;;;;;11.80;51.40;101614.38;5055141;28;45485;-58
2023/04/17 03:19:07;;;;;;;;;12.67;12.33;;;;;11.79;51.64;101623.16;5055200;28;45462;-58
2023/04/17 03:21:32;;;;;;;;;12.00;11.00;;;;;11.77;52.15;101616.19;5054547;28;46055;-58
2023/04/17 03:23:57;;;;;;;;;10.67;10.00;;;;;11.79;52.61;101614.41;5054978;28;45357;-58
2023/04/17 03:26:23;;;;;;;;;9.33;9.33;;;;;11.69;52.39;101609.38;5054871;28;45407;-58
2023/04/17 03:28:48;;;;;;;;;10.00;10.00;;;;;11.71;52.63;101610.19;5055017;28;45362;-59
2023/04/17 03:31:13;;;;;;;;;11.67;9.67;;;;;11.81;52.12;101621.38;5054907;28;45384;-59
2023/04/17 03:33:39;;;;;;;;;13.00;12.00;;;;;11.82;51.71;101612.56;5054397;28;45321;-58
2023/04/17 03:36:05;;;;;;;;;14.00;14.00;;;;;11.70;52.58;101594.41;5055035;28;45386;-58
2023/04/17 03:38:31;;;;;;;;;13.67;10.00;;;;;11.76;52.40;101606.56;5055097;28;45494;-58
2023/04/17 03:40:57;;;;;;;;;11.33;9.00;;;;;11.76;52.65;101612.69;5054492;28;46376;-59
2023/04/17 03:43:22;;;;;;;;;15.67;15.67;;;;;11.77;52.24;101621.47;5054726;28;45443;-58
2023/04/17 03:45:47;;;;;;;;;13.00;13.00;;;;;11.74;52.97;101619.81;5054123;28;54476;-58
2023/04/17 03:48:12;;;;;;;;;10.00;10.00;;;;;11.75;52.76;101620.66;5053354;28;45653;-58
2023/04/17 03:50:38;;;;;;;;;14.00;13.33;;;;;11.74;52.72;101627.72;5054235;28;53150;-58
2023/04/17 03:53:03;;;;;;;;;8.00;7.33;;;;;11.67;52.24;101619.06;5054830;28;45481;-59
2023/04/17 03:55:28;;;;;;;;;11.33;10.67;;;;;11.68;51.76;101622.56;5054446;28;45525;-59
2023/04/17 03:57:54;;;;;;;;;13.33;12.67;;;;;11.70;52.67;101633.94;5054580;28;45434;-59
2023/04/17 04:00:22;;;;;;;;;14.67;12.67;;;;;11.67;51.90;101628.75;5054771;28;45474;-58
2023/04/17 04:02:48;;;;;;;;;13.33;11.33;;;;;11.59;52.35;101628.91;5057272;28;45590;-59
2023/04/17 04:05:13;;;;;;;;;13.00;13.00;;;;;11.55;51.98;101621.97;5058154;28;45354;-59
2023/04/17 04:07:39;;;;;;;;;18.67;16.33;;;;;11.65;52.67;101638.44;5058146;28;45461;-59
2023/04/17 04:10:05;;;;;;;;;10.67;10.67;;;;;11.59;51.82;101628.91;5057781;28;45909;-58
2023/04/17 04:12:30;;;;;;;;;13.00;11.00;;;;;11.65;51.98;101639.31;5057931;28;45543;-58
2023/04/17 04:14:55;;;;;;;;;14.00;13.67;;;;;11.58;52.42;101621.94;5057389;28;49966;-58
2023/04/17 04:17:21;;;;;;;;;15.00;15.00;;;;;11.67;52.76;101634.88;5057653;28;52889;-59
2023/04/17 04:19:46;;;;;;;;;10.00;9.00;;;;;11.68;53.08;101630.47;5057785;28;46101;-59
2023/04/17 04:22:12;;;;;;;;;16.33;13.33;;;;;11.69;53.09;101632.22;5056410;28;45569;-58
2023/04/17 04:24:39;;;;;;;;;13.00;12.33;;;;;11.71;52.71;101636.56;5057766;28;45431;-59
2023/04/17 04:27:04;;;;;;;;;14.33;12.67;;;;;11.71;53.16;101633.91;5057875;28;45625;-58
2023/04/17 04:29:30;;;;;;;;;15.33;14.00;;;;;11.70;53.17;101642.72;5057655;28;45501;-58
2023/04/17 04:31:56;;;;;;;;;16.00;16.00;;;;;11.71;52.69;101640.94;5057771;28;45435;-58
2023/04/17 04:34:24;;;;;;;;;15.33;14.33;;;;;11.64;52.86;101624.41;5057714;28;45514;-58
2023/04/17 04:36:52;;;;;;;;;16.67;15.67;;;;;11.71;53.45;101646.19;5052932;28;45612;-58
2023/04/17 04:39:20;;;;;;;;;15.00;15.00;;;;;11.69;53.81;101642.75;5056728;28;45509;-58
2023/04/17 04:41:48;;;;;;;;;17.33;16.33;;;;;11.65;53.90;101635.81;5057581;28;45434;-58
2023/04/17 04:44:14;;;;;;;;;19.33;17.33;;;;;11.71;54.11;101652.38;5057374;28;45450;-58
2023/04/17 04:46:40;;;;;;;;;18.00;16.67;;;;;11.69;53.81;101656.78;5057285;28;45415;-58
2023/04/17 04:49:05;;;;;;;;;19.00;18.00;;;;;11.72;54.45;101650.59;5056550;28;61755;-58
2023/04/17 04:51:32;;;;;;;;;18.00;18.00;;;;;11.71;54.36;101657.63;5056077;28;45443;-58
2023/04/17 04:53:58;;;;;;;;;21.25;20.75;;;;;11.61;54.00;101645.56;5057198;28;45444;-58
2023/04/17 04:56:23;;;;;;;;;19.33;17.33;;;;;11.61;54.34;101663.16;5057118;28;45446;-58
2023/04/17 04:58:48;;;;;;;;;18.50;18.25;;;;;11.58;54.12;101650.03;5056584;28;57819;-58
2023/04/17 05:01:14;;;;;;;;;19.75;19.25;;;;;11.54;54.54;101643.97;5056336;28;60438;-59
2023/04/17 05:03:40;;;;;;;;;20.67;18.33;;;;;11.61;54.31;101653.47;5057392;28;45442;-58
2023/04/17 05:06:05;;;;;;;;;19.00;17.00;;;;;11.59;54.39;101651.78;5056927;28;45511;-58
2023/04/17 05:08:32;;;;;;;;;22.50;20.00;;;;;11.55;53.94;101661.50;5056674;28;45731;-58
2023/04/17 05:10:57;;;;;;;;;26.75;24.25;;;;;11.57;53.90;101661.47;5056926;28;45410;-57
2023/04/17 05:13:22;;;;;;;;;21.25;18.75;;;;;11.57;54.76;101657.06;5055785;28;45414;-58
2023/04/17 05:15:48;;;;;;;;;18.75;18.75;;;;;11.53;55.14;101652.78;5056988;28;45528;-58
2023/04/17 05:18:13;;;;;;;;;21.50;20.25;;;;;11.52;54.40;101658.06;5056652;28;45536;-58
2023/04/17 05:20:39;;;;;;;;;22.50;18.75;;;;;11.48;54.54;101644.97;5056781;28;45410;-58
2023/04/17 05:23:04;;;;;;;;;27.00;19.75;;;;;11.52;55.09;101653.66;5056851;28;45409;-58
2023/04/17 05:25:30;;;;;;;;;21.25;18.75;;;;;11.50;54.77;101658.97;5056847;28;45386;-58
2023/04/17 05:27:55;;;;;;;;;20.75;18.50;;;;;11.42;55.19;101652.16;5056593;28;46076;-58
2023/04/17 05:30:21;;;;;;;;;22.00;18.00;;;;;11.49;54.38;101662.50;5051996;28;45869;-58
2023/04/17 05:32:47;;;;;;;;;20.50;19.25;;;;;11.48;55.40;101662.53;5048416;28;45416;-58
2023/04/17 05:35:12;;;;;;;;;21.00;19.50;;;;;11.44;54.92;101664.38;5056456;28;45601;-58
2023/04/17 05:37:38;;;;;;;;;26.00;24.00;;;;;11.46;54.62;101667.84;5056200;28;46298;-58
2023/04/17 05:40:05;;;;;;;;;24.00;22.00;;;;;11.42;55.10;101660.06;5056748;28;45475;-59
2023/04/17 05:42:32;;;;;;;;;24.25;23.00;;;;;11.38;55.28;101667.13;5056465;28;45657;-58
2023/04/17 05:44:57;;;;;;;;;25.00;22.50;;;;;11.40;55.51;101664.50;5056522;28;45396;-58
2023/04/17 05:47:23;;;;;;;;;21.00;21.00;;;;;11.40;55.42;101662.72;5055955;28;53210;-58
2023/04/17 05:49:50;;;;;;;;;21.00;20.25;;;;;11.40;55.01;101652.19;5056250;28;49883;-58
2023/04/17 05:52:16;;;;;;;;;27.50;24.00;;;;;11.50;55.14;101671.28;5056262;28;45313;-58
2023/04/17 05:54:41;;;;;;;;;25.75;23.00;;;;;11.47;55.23;101666.97;5056251;28;45473;-58
2023/04/17 05:57:06;;;;;;;;;27.25;24.00;;;;;11.46;55.91;101661.72;5056213;28;45372;-58
2023/04/17 05:59:31;;;;;;;;;29.75;26.25;;;;;11.51;55.66;101662.47;5056165;28;45546;-58
2023/04/17 06:01:58;;;;;;;;;25.75;23.00;;;;;11.52;56.51;101673.88;5055879;28;46813;-59
2023/04/17 06:04:23;;;;;;;;;22.75;21.00;;;;;11.53;56.63;101670.38;5054685;28;45485;-58
2023/04/17 06:06:49;;;;;;;;;30.75;28.25;;;;;11.45;56.50;101647.69;5055835;28;46629;-58
2023/04/17 06:09:14;;;;;;;;;28.00;25.00;;;;;11.47;56.18;101660.78;5055675;28;45454;-58
2023/04/17 06:11:40;;;;;;;;;26.25;26.25;;;;;11.55;56.19;101673.81;5054778;28;45402;-58
2023/04/17 06:14:05;;;;;;;;;26.00;26.00;;;;;11.55;56.16;101673.81;5055991;28;45515;-59
2023/04/17 06:16:30;;;;;;;;;29.25;28.25;;;;;11.57;57.16;101675.50;5054483;28;46442;-58
2023/04/17 06:18:56;;;;;;;;;27.25;27.25;;;;;11.58;57.31;101669.34;5055958;28;45310;-59
2023/04/17 06:21:21;;;;;;;;;30.50;30.25;;;;;11.59;56.53;101671.06;5055819;28;45774;-58
2023/04/17 06:23:47;;;;;;;;;33.00;28.00;;;;;11.52;56.81;101656.28;5055887;28;45606;-59
2023/04/17 06:26:12;;;;;;;;;28.50;26.75;;;;;11.62;56.55;101671.00;5055483;28;46231;-58
2023/04/17 06:28:37;;;;;;;;;32.25;30.00;;;;;11.63;56.97;101677.13;5055719;28;45398;-58
2023/04/17 06:31:03;;;;;;;;;30.25;28.75;;;;;11.62;57.06;101673.63;5055585;28;45355;-58
2023/04/17 06:33:28;;;;;;;;;29.50;26.50;;;;;11.62;57.09;101684.19;5055498;28;45434;-58
2023/04/17 06:35:53;;;;;;;;;30.50;28.25;;;;;11.55;56.82;101672.03;5054675;28;60769;-58
2023/04/17 06:38:19;;;;;;;;;32.25;30.25;;;;;11.65;57.61;101678.84;5055602;28;45389;-58
2023/04/17 06:40:45;;;;;;;;;32.25;32.00;;;;;11.69;57.22;101677.03;5055602;28;45465;-59
2023/04/17 06:43:10;;;;;;;;;31.75;29.50;;;;;11.58;57.82;101669.34;5055950;28;45632;-58
2023/04/17 06:45:36;;;;;;;;;34.75;30.75;;;;;11.64;57.21;101687.66;5054999;28;46022;-58
2023/04/17 06:48:01;;;;;;;;;33.75;32.00;;;;;11.65;57.47;101683.25;5055274;28;45503;-58
2023/04/17 06:50:27;;;;;;;;;25.50;24.50;;;;;11.64;58.08;101684.16;5055558;28;45423;-58
2023/04/17 06:52:53;;;;;;;;;30.50;28.50;;;;;11.56;57.42;101681.69;5055108;28;45647;-58
2023/04/17 06:55:18;;;;;;;;;30.75;29.00;;;;;11.61;57.58;101689.50;5055076;28;45422;-58
2023/04/17 06:57:44;;;;;;;;;32.00;31.00;;;;;11.64;57.54;101692.06;5055197;28;45499;-58
2023/04/17 07:00:10;;;;;;;;;32.50;31.25;;;;;11.61;57.56;101690.38;5055328;28;45724;-58
2023/04/17 07:02:35;;;;;;;;;36.00;33.00;;;;;11.58;58.42;101698.34;5055222;28;45530;-58
2023/04/17 07:05:00;;;;;;;;;36.25;31.25;;;;;11.54;58.62;101701.94;5053473;28;45685;-58
2023/04/17 07:07:26;;;;;;;;;30.00;28.75;;;;;11.49;58.50;101695.88;5055364;28;45376;-58
2023/04/17 07:09:52;;;;;;;;;37.25;34.00;;;;;11.54;59.30;101696.66;5055009;28;45416;-58
2023/04/17 07:12:17;;;;;;;;;39.00;33.75;;;;;11.49;59.33;101698.53;5054622;28;52823;-58
2023/04/17 07:14:42;;;;;;;;;36.75;32.75;;;;;11.44;58.61;101689.84;5054891;28;45351;-58
2023/04/17 07:17:08;;;;;;;;;36.25;33.75;;;;;11.52;59.01;101706.34;5055104;28;45420;-58
2023/04/17 07:19:34;;;;;;;;;31.50;31.00;;;;;11.44;59.75;101703.88;5055048;28;45351;-58
2023/04/17 07:21:59;;;;;;;;;37.00;34.00;;;;;11.45;60.11;101707.41;5053461;28;45552;-58
2023/04/17 07:24:25;;;;;;;;;40.25;34.75;;;;;11.47;60.23;101717.00;5054963;28;45401;-58
2023/04/17 07:26:50;;;;;;;;;37.25;32.25;;;;;11.47;59.10;101714.38;5054591;28;45372;-58
2023/04/17 07:29:16;;;;;;;;;34.00;31.25;;;;;11.53;59.90;101709.88;5054973;28;45656;-58
2023/04/17 07:31:42;;;;;;;;;43.75;37.00;;;;;11.51;59.96;101715.16;5054481;28;45714;-58
2023/04/17 07:34:08;;;;;;;;;39.50;34.50;;;;;11.53;59.54;101725.69;5054660;28;45568;-58
2023/04/17 07:36:33;;;;;;;;;34.00;32.50;;;;;11.53;59.19;101721.28;5054181;28;45390;-58
2023/04/17 07:38:58;;;;;;;;;41.50;36.00;;;;;11.54;59.86;101725.63;5055096;28;45506;-59
2023/04/17 07:41:24;;;;;;;;;41.50;35.50;;;;;11.56;59.23;101729.13;5055030;28;45511;-58
2023/04/17 07:43:49;;;;;;;;;37.25;34.50;;;;;11.55;60.24;101722.09;5054705;28;45593;-58
2023/04/17 07:46:14;;;;;;;;;42.75;35.00;;;;;11.57;59.92;101729.97;5054204;28;62982;-59
2023/04/17 07:48:40;;;;;;;;;39.25;32.00;;;;;11.57;59.53;101725.56;5054781;28;45912;-59
2023/04/17 07:51:06;;;;;;;;;40.25;33.50;;;;;11.59;59.91;101729.03;5054874;28;45427;-58
2023/04/17 07:53:34;;;;;;;;;40.75;33.00;;;;;11.57;59.26;101728.19;5054726;28;47185;-58
2023/04/17 07:56:00;;;;;;;;;43.25;36.00;;;;;11.63;59.87;101729.84;5054527;28;45371;-58
2023/04/17 07:58:25;;;;;;;;;41.00;36.25;;;;;11.55;60.14;101716.81;5054688;28;45462;-58
2023/04/17 08:00:51;;;;;;;;;38.50;35.50;;;;;11.64;59.32;101734.22;5054486;28;45601;-59
2023/04/17 08:03:17;;;;;;;;;37.25;33.50;;;;;11.61;60.48;101732.53;5054608;28;46026;-57
2023/04/17 08:05:42;;;;;;;;;33.75;32.25;;;;;11.55;59.96;101735.25;5054620;28;45544;-60
2023/04/17 08:08:07;;;;;;;;;37.50;34.00;;;;;11.58;60.57;101726.44;5054684;28;45481;-57
2023/04/17 08:10:33;;;;;;;;;34.00;32.00;;;;;11.60;60.89;101732.53;5054673;28;45521;-57
2023/04/17 08:13:00;;;;;;;;;42.00;37.75;;;;;11.58;60.62;101729.97;5054291;28;46326;-57
2023/04/17 08:15:25;;;;;;;;;39.50;33.00;;;;;11.63;60.06;101733.38;5054414;28;45515;-57
2023/04/17 08:17:50;;;;;;;;;37.25;34.75;;;;;11.60;60.31;101730.75;5054353;28;45514;-62
2023/04/17 08:20:17;;;;;;;;;47.50;37.50;;;;;11.59;60.34;101720.28;5054164;28;53990;-57
2023/04/17 08:22:45;;;;;;;;;38.50;32.75;;;;;11.66;59.60;101732.41;5054325;28;45493;-57
2023/04/17 08:25:11;;;;;;;;;39.75;35.50;;;;;11.59;60.93;101715.88;5052995;28;45462;-58
2023/04/17 08:27:39;;;;;;;;;43.75;35.50;;;;;11.66;60.83;101728.03;5054611;28;45406;-57
2023/04/17 08:30:05;;;;;;;;;48.50;38.75;;;;;11.69;60.38;101730.59;5054211;28;45451;-57
2023/04/17 08:32:41;;;;;;;;;43.50;37.00;;;;;11.68;60.09;101731.47;5054146;28;45406;-58
2023/04/17 08:35:10;;;;;;;;;35.50;33.75;;;;;11.74;60.33;101746.31;5054218;28;45536;-57
2023/04/17 08:37:36;;;;;;;;;41.75;37.25;;;;;11.75;60.27;101739.25;5054289;28;45371;-57
2023/04/17 08:40:03;;;;;;;;;42.50;34.75;;;;;11.68;61.16;101727.97;5054217;28;45552;-57
2023/04/17 08:42:31;;;;;;;;;39.00;35.00;;;;;11.67;60.55;101727.09;5054067;28;45562;-57
2023/04/17 08:45:03;;;;;;;;;40.25;35.75;;;;;11.68;60.63;101717.44;5053862;28;45521;-57
2023/04/17 08:47:29;;;;;;;;;44.75;36.75;;;;;11.81;60.30;101744.38;5053729;28;45429;-57
2023/04/17 08:49:56;;;;;;;;;43.00;34.75;;;;;11.81;60.89;101731.22;5057005;28;45528;-57
2023/04/17 08:52:22;;;;;;;;;42.50;37.00;;;;;11.87;59.70;101737.22;5057070;28;45470;-57
2023/04/17 08:54:48;;;;;;;;;48.25;40.00;;;;;11.83;60.13;101721.50;5057144;28;50161;-57
2023/04/17 08:57:13;;;;;;;;;45.75;38.00;;;;;11.90;60.85;101737.19;5057447;28;45472;-57
2023/04/17 08:59:41;;;;;;;;;49.00;41.25;;;;;11.91;60.21;101728.38;5057070;28;45379;-57
2023/04/17 09:02:08;;;;;;;;;42.75;38.00;;;;;11.85;59.89;101717.06;5057102;28;45513;-57
2023/04/17 09:04:37;;;;;;;;;40.25;34.50;;;;;11.92;59.89;101724.81;5056940;28;45588;-57
2023/04/17 09:07:07;;;;;;;;;46.75;38.00;;;;;11.93;60.11;101715.16;5057454;28;45446;-57
2023/04/17 09:09:53;;;;;;;;;48.50;40.50;;;;;11.92;59.77;101721.31;5057181;28;45442;-58
2023/04/17 09:12:20;;;;;;;;;50.50;39.00;;;;;12.00;59.91;101729.91;5057144;28;45444;-58
2023/04/17 09:14:46;;;;;;;;;49.00;38.00;;;;;11.98;60.23;101717.66;5056842;28;45382;-58
2023/04/17 09:17:13;;;;;;;;;49.50;38.75;;;;;11.99;59.90;101724.69;5057307;28;45415;-58
2023/04/17 09:20:06;;;;;;;;;50.00;41.75;;;;;12.05;59.92;101728.03;5057109;28;45559;-58
2023/04/17 09:22:31;;;;;;;;;48.00;38.75;;;;;12.05;59.54;101712.22;5056713;28;46268;-57
2023/04/17 09:24:57;;;;;;;;;48.25;41.00;;;;;12.12;59.64;101719.09;5056774;28;45445;-57
2023/04/17 09:27:24;;;;;;;;;48.50;38.25;;;;;12.15;59.49;101733.97;5057069;28;45442;-57
2023/04/17 09:30:05;;;;;;;;;48.50;38.00;;;;;12.15;59.11;101729.56;5056767;28;45300;-57
2023/04/17 09:32:32;;;;;;;;;55.75;41.75;;;;;12.16;59.69;101725.16;5056718;28;46195;-57
2023/04/17 09:34:59;;;;;;;;;48.50;39.50;;;;;12.17;59.15;101724.28;5056457;28;45321;-57
2023/04/17 09:37:46;;;;;;;;;51.75;40.25;;;;;12.14;59.46;101719.94;5056629;28;45478;-57
2023/04/17 09:40:11;;;;;;;;;47.00;35.75;;;;;12.20;58.91;101721.56;5056920;28;45522;-57
2023/04/17 09:42:56;;;;;;;;;48.00;40.75;;;;;12.24;59.04;101732.88;5056491;28;45514;-57
2023/04/17 09:45:23;;;;;;;;;47.00;39.00;;;;;12.28;59.26;101729.28;5056684;28;45480;-57
2023/04/17 09:47:49;;;;;;;;;47.50;39.75;;;;;12.16;59.09;101711.97;5056574;28;45446;-57
2023/04/17 09:50:17;;;;;;;;;49.75;41.50;;;;;12.22;59.55;101719.72;5056647;28;45581;-57
2023/04/17 09:52:42;;;;;;;;;49.50;41.25;;;;;12.24;59.23;101717.91;5056202;28;45332;-57
2023/04/17 09:55:10;;;;;;;;;47.00;37.75;;;;;12.27;58.93;101722.25;5056159;28;45406;-57
2023/04/17 09:57:37;;;;;;;;;46.50;37.00;;;;;12.28;58.80;101724.88;5056498;28;45438;-56
2023/04/17 10:00:05;;;;;;;;;43.50;38.50;;;;;12.29;59.37;101718.69;5055941;28;45530;-57
2023/04/17 10:02:32;;;;;;;;;48.75;41.50;;;;;12.27;59.33;101723.13;5055948;28;46488;-57
2023/04/17 10:04:58;;;;;;;;;43.75;38.00;;;;;12.28;58.86;101721.38;5056588;28;45387;-57
2023/04/17 10:07:23;;;;;;;;;42.75;36.00;;;;;12.32;58.96;101720.38;5056544;28;45444;-57
2023/04/17 10:09:49;;;;;;;;;46.50;38.75;;;;;12.32;58.99;101721.22;5055517;28;57734;-57
2023/04/17 10:12:16;;;;;;;;;54.25;44.50;;;;;12.30;59.72;101723.03;5056012;28;56007;-58
2023/04/17 10:14:47;;;;;;;;;47.00;39.00;;;;;12.33;59.70;101730.00;5055824;28;45391;-57
2023/04/17 10:17:24;;;;;;;;;48.75;39.00;;;;;12.34;59.46;101729.13;5055760;28;45444;-57
2023/04/17 10:19:49;;;;;;;;;39.00;34.25;;;;;12.35;59.55;101729.06;5055652;28;45451;-58
2023/04/17 10:22:14;;;;;;;;;50.25;40.50;;;;;12.32;59.00;101723.88;5055578;28;45381;-57
2023/04/17 10:24:44;;;;;;;;;48.75;40.00;;;;;12.27;59.81;101709.94;5055777;28;45419;-58
2023/04/17 10:27:29;;;;;;;;;49.00;41.50;;;;;12.33;59.25;101719.47;5056008;28;45595;-59
2023/04/17 10:29:56;;;;;;;;;47.25;40.75;;;;;12.34;59.87;101727.34;5055687;28;45446;-57
2023/04/17 10:32:29;;;;;;;;;45.25;40.00;;;;;12.30;59.60;101698.44;5055648;28;46415;-59
2023/04/17 10:34:58;;;;;;;;;46.25;38.25;;;;;12.41;59.63;101714.00;5055310;28;45446;-57
2023/04/17 10:40:20;;;;;;;;;48.50;39.25;;;;;12.46;59.07;101709.47;5055699;28;45553;-57
2023/04/17 10:43:16;;;;;;;;;47.75;40.75;;;;;12.46;59.35;101712.97;5055385;28;45413;-57
2023/04/17 10:46:12;;;;;;;;;43.50;37.25;;;;;12.43;59.37;101705.13;5055255;28;45544;-57
2023/04/17 10:48:40;;;;;;;;;52.25;39.75;;;;;12.48;59.71;101712.94;5055354;28;45422;-57
2023/04/17 10:51:20;;;;;;;;;44.50;38.75;;;;;12.46;59.53;101698.91;5055016;28;45668;-57
2023/04/17 10:53:54;;;;;;;;;51.00;39.50;;;;;12.47;59.53;101700.69;5055279;28;45324;-57
2023/04/17 10:56:37;;;;;;;;;47.00;38.75;;;;;12.42;59.46;101700.78;5055045;28;45595;-59
2023/04/17 10:59:14;;;;;;;;;49.00;41.00;;;;;12.45;59.29;101702.47;5055220;28;45516;-59
2023/04/17 11:01:56;;;;;;;;;45.00;39.00;;;;;12.48;60.19;101705.91;5055328;28;45451;-59
2023/04/17 11:04:24;;;;;;;;;51.25;40.75;;;;;12.49;59.57;101704.13;5055011;28;45928;-57
2023/04/17 11:06:54;;;;;;;;;46.00;38.00;;;;;12.50;59.63;101701.44;5053321;28;45404;-57
2023/04/17 11:09:21;;;;;;;;;44.75;35.75;;;;;12.46;59.05;101709.47;5054908;28;45400;-57
2023/04/17 11:11:47;;;;;;;;;53.00;40.50;;;;;12.46;58.92;101693.66;5054278;28;45441;-57
2023/04/17 11:14:15;;;;;;;;;45.75;38.00;;;;;12.18;59.86;101646.88;5054717;28;45619;-57
2023/04/17 11:16:42;;;;;;;;;45.50;38.25;;;;;12.44;59.14;101691.06;5054950;28;45510;-57